Golden Iris — 3FZK4 — position and weather

sailwx.info

Track history (hours):
 
Tides and Currents Weather Stations Pressure Air Temp Water Temp Dewpoint Dewpoint Depression Visibility Wind Speed Wind Dir Waves Ship Positions

Golden Iris

Last reported at 2015-May-25 20:33 UTC. Time now 2015-May-25 21:23 UTC.
Position N 33°16' E 033°39'.

Length 180 m; draft 6 m.

Type: Passenger vessel. MMSI: 371771000.

Date/timePositionNaut miles runAvg speedWind from/ knotsBaromVisibWave heightAir tempDewpointWater temp
2015-May-25 20:33N 33°16' E 033°39'1312.9
2015-May-25 19:33N 33°23' E 033°26'1313.2
2015-May-25 18:33N 33°31' E 033°13'1312.9
2015-May-25 17:33N 33°39' E 033°01'1312.9
2015-May-25 16:33N 33°47' E 032°48'1313.3
2015-May-25 15:33N 33°55' E 032°36'1413.9
2015-May-25 14:33N 34°03' E 032°22'1613.9
2015-May-25 13:23N 34°14' E 032°08'28511.0
2015-May-24 11:25N 36°54' E 027°17'0 0.0
2015-May-24 09:22N 36°54' E 027°17'20 4.8
2015-May-24 05:10N 36°34' E 027°16'6 9.5
2015-May-24 04:33N 36°28' E 027°13'10 9.6
2015-May-24 03:33N 36°19' E 027°09'9 9.3
2015-May-24 02:33N 36°10' E 027°06'18 9.2
2015-May-24 00:33N 36°16' E 027°28'9 9.3
2015-May-23 23:33N 36°19' E 027°38'242 9.5
2015-May-22 22:04N 34°27' E 032°02'714.4
2015-May-22 21:33N 34°23' E 032°09'1614.3
2015-May-22 20:24N 34°15' E 032°26'1214.2
2015-May-22 19:32N 34°08' E 032°39'1514.3
2015-May-22 18:31N 34°00' E 032°54'1714.3
2015-May-22 17:20N 33°51' E 033°11'1314.2
2015-May-22 16:23N 33°44' E 033°24'92 6.6
2015-May-22 02:28N 32°53' E 034°56'1111.8
2015-May-22 01:34N 32°55' E 034°43'441 9.2
2015-May-20 01:28N 35°37' E 026°28'1010.5
2015-May-20 00:31N 35°43' E 026°38'1010.6
2015-May-19 23:33N 35°49' E 026°48'1310.3
2015-May-19 22:18N 35°58' E 027°01'7 9.8
2015-May-19 21:33N 36°02' E 027°08'10 9.6
2015-May-19 20:31N 36°08' E 027°17'12 9.7
2015-May-19 19:15N 36°16' E 027°29'7 9.9
2015-May-19 18:34N 36°19' E 027°37'161 4.1
2015-May-18 03:19N 35°12' E 030°36'1714.9
2015-May-18 02:11N 35°02' E 030°54'5514.8
2015-May-17 22:31N 34°33' E 031°50'1414.3
2015-May-17 21:33N 34°26' E 032°04'1414.3
2015-May-17 20:34N 34°18' E 032°19'1414.4
2015-May-17 19:33N 34°11' E 032°34'1514.7
2015-May-17 18:33N 34°03' E 032°49'1514.5
2015-May-17 17:32N 33°56' E 033°04'1414.2
2015-May-17 16:33N 33°47' E 033°17'1514.6
2015-May-17 15:33N 33°39' E 033°32'1615.9
2015-May-17 14:33N 33°30' E 033°48'1615.9
2015-May-17 13:34N 33°21' E 034°03'1515.4
2015-May-17 12:33N 33°12' E 034°19'1514.7
2015-May-17 11:33N 33°04' E 034°33'1414.4
2015-May-17 10:33N 32°57' E 034°48'1312.9
2015-May-17 09:32N 32°50' E 035°01'1 0.5
2015-May-17 07:29N 32°49' E 035°00'0 0.0
2015-May-17 06:11N 32°49' E 035°00'0 0.0
2015-May-17 04:29N 32°49' E 035°00'1 0.5
2015-May-17 02:33N 32°50' E 035°01'8 8.6
2015-May-17 01:33N 32°53' E 034°52'1413.5
2015-May-17 00:34N 32°56' E 034°36'1212.2
2015-May-16 23:34N 33°05' E 034°26'1313.0
2015-May-16 22:34N 33°17' E 034°19'1312.5
2015-May-16 21:33N 33°28' E 034°12'1312.7
2015-May-16 20:33N 33°39' E 034°05'1312.7
2015-May-16 19:32N 33°51' E 033°60'1312.8
2015-May-16 18:33N 34°03' E 033°56'1413.1
2015-May-16 17:30N 34°17' E 033°52'1313.2
2015-May-16 16:32N 34°29' E 033°48'1313.4
2015-May-16 15:33N 34°42' E 033°44'1312.7
2015-May-16 14:33N 34°54' E 033°40'2 2.2
2015-May-16 13:32N 34°56' E 033°39'0 0.0
2015-May-16 12:29N 34°56' E 033°39'0 0.0
2015-May-16 11:32N 34°56' E 033°39'0 0.0
2015-May-16 10:29N 34°56' E 033°39'0 0.0
2015-May-16 09:29N 34°56' E 033°39'0 0.0
2015-May-16 08:29N 34°56' E 033°39'0 0.0
2015-May-16 07:32N 34°56' E 033°39'0 0.0
2015-May-16 06:30N 34°56' E 033°39'11 3.7
2015-May-16 03:27N 34°45' E 033°44'8 8.2
2015-May-16 02:26N 34°37' E 033°46'7 8.3
2015-May-16 01:33N 34°31' E 033°50'9 8.0
2015-May-16 00:27N 34°23' E 033°56'7 7.9
2015-May-15 23:33N 34°17' E 033°52'8 8.2
2015-May-15 22:31N 34°09' E 033°54'8 8.2
2015-May-15 21:33N 34°01' E 033°58'  
Track history (hours):
 
Tides and Currents Weather Stations Pressure Air Temp Water Temp Dewpoint Dewpoint Depression Visibility Wind Speed Wind Dir Waves Ship Positions

Golden Iris

Last reported at 2015-May-25 20:33 UTC. Time now 2015-May-25 21:23 UTC.
Position N 33°16' E 033°39'.

Length 180 m; draft 6 m.

Type: Passenger vessel. MMSI: 371771000.

Date/timePositionNaut miles runAvg speedWind from/ knotsBaromVisibWave heightAir tempDewpointWater temp
2015-May-25 20:33N 33°16' E 033°39'1312.9
2015-May-25 19:33N 33°23' E 033°26'1313.2
2015-May-25 18:33N 33°31' E 033°13'1312.9
2015-May-25 17:33N 33°39' E 033°01'1312.9
2015-May-25 16:33N 33°47' E 032°48'1313.3
2015-May-25 15:33N 33°55' E 032°36'1413.9
2015-May-25 14:33N 34°03' E 032°22'1613.9
2015-May-25 13:23N 34°14' E 032°08'28511.0
2015-May-24 11:25N 36°54' E 027°17'0 0.0
2015-May-24 09:22N 36°54' E 027°17'20 4.8
2015-May-24 05:10N 36°34' E 027°16'6 9.5
2015-May-24 04:33N 36°28' E 027°13'10 9.6
2015-May-24 03:33N 36°19' E 027°09'9 9.3
2015-May-24 02:33N 36°10' E 027°06'18 9.2
2015-May-24 00:33N 36°16' E 027°28'9 9.3
2015-May-23 23:33N 36°19' E 027°38'242 9.5
2015-May-22 22:04N 34°27' E 032°02'714.4
2015-May-22 21:33N 34°23' E 032°09'1614.3
2015-May-22 20:24N 34°15' E 032°26'1214.2
2015-May-22 19:32N 34°08' E 032°39'1514.3
2015-May-22 18:31N 34°00' E 032°54'1714.3
2015-May-22 17:20N 33°51' E 033°11'1314.2
2015-May-22 16:23N 33°44' E 033°24'92 6.6
2015-May-22 02:28N 32°53' E 034°56'1111.8
2015-May-22 01:34N 32°55' E 034°43'441 9.2
2015-May-20 01:28N 35°37' E 026°28'1010.5
2015-May-20 00:31N 35°43' E 026°38'1010.6
2015-May-19 23:33N 35°49' E 026°48'1310.3
2015-May-19 22:18N 35°58' E 027°01'7 9.8
2015-May-19 21:33N 36°02' E 027°08'10 9.6
2015-May-19 20:31N 36°08' E 027°17'12 9.7
2015-May-19 19:15N 36°16' E 027°29'7 9.9
2015-May-19 18:34N 36°19' E 027°37'161 4.1
2015-May-18 03:19N 35°12' E 030°36'1714.9
2015-May-18 02:11N 35°02' E 030°54'5514.8
2015-May-17 22:31N 34°33' E 031°50'1414.3
2015-May-17 21:33N 34°26' E 032°04'1414.3
2015-May-17 20:34N 34°18' E 032°19'1414.4
2015-May-17 19:33N 34°11' E 032°34'1514.7
2015-May-17 18:33N 34°03' E 032°49'1514.5
2015-May-17 17:32N 33°56' E 033°04'1414.2
2015-May-17 16:33N 33°47' E 033°17'1514.6
2015-May-17 15:33N 33°39' E 033°32'1615.9
2015-May-17 14:33N 33°30' E 033°48'1615.9
2015-May-17 13:34N 33°21' E 034°03'1515.4
2015-May-17 12:33N 33°12' E 034°19'1514.7
2015-May-17 11:33N 33°04' E 034°33'1414.4
2015-May-17 10:33N 32°57' E 034°48'1312.9
2015-May-17 09:32N 32°50' E 035°01'1 0.5
2015-May-17 07:29N 32°49' E 035°00'0 0.0
2015-May-17 06:11N 32°49' E 035°00'0 0.0
2015-May-17 04:29N 32°49' E 035°00'1 0.5
2015-May-17 02:33N 32°50' E 035°01'8 8.6
2015-May-17 01:33N 32°53' E 034°52'1413.5
2015-May-17 00:34N 32°56' E 034°36'1212.2
2015-May-16 23:34N 33°05' E 034°26'1313.0
2015-May-16 22:34N 33°17' E 034°19'1312.5
2015-May-16 21:33N 33°28' E 034°12'1312.7
2015-May-16 20:33N 33°39' E 034°05'1312.7
2015-May-16 19:32N 33°51' E 033°60'1312.8
2015-May-16 18:33N 34°03' E 033°56'1413.1
2015-May-16 17:30N 34°17' E 033°52'1313.2
2015-May-16 16:32N 34°29' E 033°48'1313.4
2015-May-16 15:33N 34°42' E 033°44'1312.7
2015-May-16 14:33N 34°54' E 033°40'2 2.2
2015-May-16 13:32N 34°56' E 033°39'0 0.0
2015-May-16 12:29N 34°56' E 033°39'0 0.0
2015-May-16 11:32N 34°56' E 033°39'0 0.0
2015-May-16 10:29N 34°56' E 033°39'0 0.0
2015-May-16 09:29N 34°56' E 033°39'0 0.0
2015-May-16 08:29N 34°56' E 033°39'0 0.0
2015-May-16 07:32N 34°56' E 033°39'0 0.0
2015-May-16 06:30N 34°56' E 033°39'11 3.7
2015-May-16 03:27N 34°45' E 033°44'8 8.2
2015-May-16 02:26N 34°37' E 033°46'7 8.3
2015-May-16 01:33N 34°31' E 033°50'9 8.0
2015-May-16 00:27N 34°23' E 033°56'7 7.9
2015-May-15 23:33N 34°17' E 033°52'8 8.2
2015-May-15 22:31N 34°09' E 033°54'8 8.2
2015-May-15 21:33N 34°01' E 033°58'  

Dump ship's entire track history